Time;durP1;ratioP1;P1;durP2;ratioP2;P2;SDS_P1;SDS_P2;PMS_P1;PMS_P2;Temp;Humidity;BMP_temperature;BMP_pressure;BME280_temperature;BME280_humidity;BME280_pressure;Samples;Min_cycle;Max_cycle;Signal;HPM_P1;HPM_P2
2022/01/17 00:02:50;;;;;;;33.08;18.58;;;;;;;;;;6248165;28;20192;-65
2022/01/17 00:05:52;;;;;;;35.13;18.92;;;;;;;;;;6252530;28;20135;-66
2022/01/17 00:08:53;;;;;;;34.92;18.38;;;;;;;;;;6255071;28;20616;-65
2022/01/17 00:11:56;;;;;;;34.15;19.13;;;;;;;;;;6249228;28;20446;-65
2022/01/17 00:14:58;;;;;;;34.30;18.60;;;;;;;;;;6251930;28;20124;-66
2022/01/17 00:18:25;;;;;;;35.78;19.13;;;;;;;;;;6254353;28;20147;-65
2022/01/17 00:21:26;;;;;;;34.95;19.42;;;;;;;;;;6251718;28;20045;-65
2022/01/17 00:24:28;;;;;;;34.20;18.30;;;;;;;;;;6253232;28;20136;-65
2022/01/17 00:27:31;;;;;;;36.95;18.10;;;;;;;;;;6249915;28;20065;-65
2022/01/17 00:30:32;;;;;;;35.42;18.58;;;;;;;;;;6255023;28;20776;-65
2022/01/17 00:33:35;;;;;;;36.58;19.35;;;;;;;;;;6250991;28;20118;-65
2022/01/17 00:36:37;;;;;;;34.00;17.60;;;;;;;;;;6255245;28;20137;-65
2022/01/17 00:39:39;;;;;;;33.42;18.35;;;;;;;;;;6252207;28;20528;-65
2022/01/17 00:42:42;;;;;;;32.53;18.02;;;;;;;;;;6259020;28;20132;-65
2022/01/17 00:45:45;;;;;;;35.07;18.73;;;;;;;;;;6263776;28;20091;-66
2022/01/17 00:48:48;;;;;;;35.17;17.73;;;;;;;;;;6249312;28;20417;-64
2022/01/17 00:51:50;;;;;;;32.25;18.00;;;;;;;;;;6246030;28;20393;-64
2022/01/17 00:54:51;;;;;;;32.60;18.02;;;;;;;;;;6252228;28;20081;-62
2022/01/17 00:57:53;;;;;;;34.78;18.45;;;;;;;;;;6250188;28;20073;-64
2022/01/17 01:00:54;;;;;;;30.83;17.30;;;;;;;;;;6248688;28;20132;-65
2022/01/17 01:03:58;;;;;;;32.10;18.33;;;;;;;;;;6278173;28;20070;-66
2022/01/17 01:06:59;;;;;;;39.83;18.77;;;;;;;;;;6256997;28;20123;-66
2022/01/17 01:10:04;;;;;;;31.70;17.85;;;;;;;;;;6252235;28;20061;-67
2022/01/17 01:13:06;;;;;;;34.03;17.27;;;;;;;;;;6253812;28;20390;-67
2022/01/17 01:16:24;;;;;;;33.00;17.40;;;;;;;;;;6253706;28;20283;-66
2022/01/17 01:19:29;;;;;;;31.65;17.73;;;;;;;;;;6252471;28;20378;-66
2022/01/17 01:29:09;;;;;;;35.35;17.88;;;;;;;;;;6247160;28;20517;-67
2022/01/17 01:32:11;;;;;;;35.63;18.58;;;;;;;;;;6256220;28;20527;-67
2022/01/17 01:35:17;;;;;;;36.25;19.02;;;;;;;;;;6257938;28;20057;-67
2022/01/17 01:38:19;;;;;;;39.92;20.17;;;;;;;;;;6254705;28;20505;-66
2022/01/17 01:41:21;;;;;;;33.15;18.20;;;;;;;;;;6256215;28;20069;-66
2022/01/17 01:44:23;;;;;;;35.15;17.48;;;;;;;;;;6260186;28;20044;-68
2022/01/17 01:47:26;;;;;;;37.05;18.98;;;;;;;;;;6257858;28;20052;-67
2022/01/17 01:50:29;;;;;;;31.85;18.33;;;;;;;;;;6250971;28;20459;-67
2022/01/17 01:53:31;;;;;;;36.55;19.63;;;;;;;;;;6251363;28;20120;-66
2022/01/17 01:56:36;;;;;;;37.75;19.98;;;;;;;;;;6249489;28;20127;-67
2022/01/17 01:59:38;;;;;;;35.53;18.90;;;;;;;;;;6260882;28;20397;-67
2022/01/17 02:02:39;;;;;;;33.50;18.50;;;;;;;;;;6255237;28;20060;-67
2022/01/17 02:05:43;;;;;;;34.40;18.20;;;;;;;;;;6253273;28;20128;-66
2022/01/17 02:08:44;;;;;;;32.23;17.43;;;;;;;;;;6256288;28;20110;-69
2022/01/17 02:11:46;;;;;;;37.40;17.67;;;;;;;;;;6256721;28;21162;-66
2022/01/17 02:14:48;;;;;;;31.20;17.13;;;;;;;;;;6260020;28;20061;-66
2022/01/17 02:17:55;;;;;;;33.42;17.38;;;;;;;;;;6252067;28;20041;-68
2022/01/17 02:21:17;;;;;;;36.15;17.88;;;;;;;;;;6259306;28;20045;-66
2022/01/17 02:24:20;;;;;;;32.15;17.75;;;;;;;;;;6260016;28;20052;-66
2022/01/17 02:27:21;;;;;;;33.20;17.75;;;;;;;;;;6256765;28;20045;-67
2022/01/17 02:30:25;;;;;;;32.83;17.20;;;;;;;;;;6256154;28;20053;-65
2022/01/17 02:33:27;;;;;;;36.13;17.75;;;;;;;;;;6244035;28;20525;-67
2022/01/17 02:36:30;;;;;;;32.53;16.83;;;;;;;;;;6260869;28;20069;-67
2022/01/17 02:39:31;;;;;;;29.67;16.50;;;;;;;;;;6254910;28;20132;-67
2022/01/17 02:42:35;;;;;;;29.65;17.17;;;;;;;;;;6267128;28;20167;-67
2022/01/17 02:46:24;;;;;;;29.00;17.33;;;;;;;;;;6256517;28;20054;-67
2022/01/17 02:49:01;;;;;;;32.22;16.90;;;;;;;;;;6255847;28;20478;-67
2022/01/17 02:52:04;;;;;;;31.30;16.67;;;;;;;;;;6253559;28;20065;-67
2022/01/17 02:55:06;;;;;;;25.42;14.77;;;;;;;;;;6256498;28;20088;-67
2022/01/17 02:58:08;;;;;;;27.88;15.35;;;;;;;;;;6258560;28;20080;-67
2022/01/17 03:01:11;;;;;;;28.40;15.10;;;;;;;;;;6258893;28;20057;-66
2022/01/17 03:04:13;;;;;;;24.37;14.43;;;;;;;;;;6257912;28;20505;-67
2022/01/17 03:07:16;;;;;;;24.83;14.05;;;;;;;;;;6258780;28;20145;-67
2022/01/17 03:10:28;;;;;;;28.20;16.05;;;;;;;;;;6262599;28;20501;-67
2022/01/17 03:13:32;;;;;;;27.60;15.23;;;;;;;;;;6258455;28;20189;-67
2022/01/17 03:16:35;;;;;;;29.48;15.45;;;;;;;;;;6258034;28;20056;-67
2022/01/17 03:19:37;;;;;;;25.63;14.77;;;;;;;;;;6259910;28;20052;-66
2022/01/17 03:22:39;;;;;;;25.08;14.57;;;;;;;;;;6257506;28;20416;-67
2022/01/17 03:25:41;;;;;;;26.67;14.25;;;;;;;;;;6261132;28;20037;-66
2022/01/17 03:28:43;;;;;;;24.48;13.38;;;;;;;;;;6252179;28;20124;-66
2022/01/17 03:31:44;;;;;;;24.95;14.02;;;;;;;;;;6257940;28;20129;-65
2022/01/17 03:34:46;;;;;;;25.70;12.93;;;;;;;;;;6255619;28;20135;-66
2022/01/17 03:37:49;;;;;;;23.48;13.82;;;;;;;;;;6255310;28;20300;-66
2022/01/17 03:40:51;;;;;;;26.17;14.00;;;;;;;;;;6254392;28;20053;-66
2022/01/17 03:43:53;;;;;;;23.38;13.27;;;;;;;;;;6255773;28;20059;-66
2022/01/17 03:46:55;;;;;;;24.17;13.00;;;;;;;;;;6261810;28;20413;-66
2022/01/17 03:49:56;;;;;;;22.42;13.93;;;;;;;;;;6261184;28;20045;-66
2022/01/17 03:52:59;;;;;;;24.05;13.57;;;;;;;;;;6260399;28;20089;-66
2022/01/17 03:56:01;;;;;;;24.42;12.65;;;;;;;;;;6256784;28;20060;-68
2022/01/17 03:59:02;;;;;;;26.20;12.93;;;;;;;;;;6255365;28;20120;-66
2022/01/17 04:02:04;;;;;;;27.08;14.43;;;;;;;;;;6253525;28;20131;-68
2022/01/17 04:05:07;;;;;;;22.92;13.93;;;;;;;;;;6254135;28;20498;-67
2022/01/17 04:08:10;;;;;;;25.88;14.73;;;;;;;;;;6254612;28;20587;-67
2022/01/17 04:11:13;;;;;;;29.27;15.20;;;;;;;;;;6255497;28;20099;-67
2022/01/17 04:14:16;;;;;;;27.40;14.27;;;;;;;;;;6255151;28;20049;-68
2022/01/17 04:17:18;;;;;;;29.50;16.85;;;;;;;;;;6257823;28;20172;-67
2022/01/17 04:20:26;;;;;;;29.92;17.38;;;;;;;;;;6252857;28;20126;-67
2022/01/17 04:23:29;;;;;;;30.38;17.05;;;;;;;;;;6247369;28;20073;-67
2022/01/17 04:26:30;;;;;;;30.35;17.25;;;;;;;;;;6251145;28;20561;-69
2022/01/17 04:29:32;;;;;;;28.63;16.67;;;;;;;;;;6246605;28;20561;-67
2022/01/17 04:32:34;;;;;;;29.92;17.00;;;;;;;;;;6255182;28;20139;-68
2022/01/17 04:35:37;;;;;;;29.60;15.88;;;;;;;;;;6259919;28;20369;-66
2022/01/17 04:38:40;;;;;;;30.77;17.48;;;;;;;;;;6255370;28;20091;-66
2022/01/17 04:41:41;;;;;;;28.90;18.08;;;;;;;;;;6255515;28;20118;-66
2022/01/17 04:48:03;;;;;;;34.10;19.33;;;;;;;;;;6255542;28;20455;-66
2022/01/17 04:51:05;;;;;;;34.83;19.40;;;;;;;;;;6255149;28;20158;-67
2022/01/17 04:54:29;;;;;;;32.03;18.05;;;;;;;;;;6257203;28;20183;-67
2022/01/17 04:57:30;;;;;;;29.73;17.02;;;;;;;;;;6254743;28;20052;-66
2022/01/17 05:00:32;;;;;;;31.35;16.98;;;;;;;;;;6257491;28;20450;-66
2022/01/17 05:03:35;;;;;;;28.08;16.75;;;;;;;;;;6251346;28;20061;-66
2022/01/17 05:06:37;;;;;;;25.55;16.23;;;;;;;;;;6256673;28;20053;-66
2022/01/17 05:09:41;;;;;;;27.55;16.65;;;;;;;;;;6252631;28;20623;-66
2022/01/17 05:12:43;;;;;;;24.95;15.63;;;;;;;;;;6258478;28;20132;-66
2022/01/17 05:15:49;;;;;;;28.48;15.85;;;;;;;;;;6255572;28;20049;-66
2022/01/17 05:22:10;;;;;;;28.48;14.55;;;;;;;;;;6254378;28;20057;-66
2022/01/17 05:25:13;;;;;;;24.70;14.70;;;;;;;;;;6257373;28;20049;-67
2022/01/17 05:28:15;;;;;;;22.98;13.70;;;;;;;;;;6245780;28;20049;-66
2022/01/17 05:31:16;;;;;;;24.40;13.73;;;;;;;;;;6249983;28;20123;-67
2022/01/17 05:34:18;;;;;;;23.88;13.40;;;;;;;;;;6247761;28;20115;-66
2022/01/17 05:37:19;;;;;;;23.30;13.60;;;;;;;;;;6248825;28;20150;-66
2022/01/17 05:40:23;;;;;;;22.40;13.70;;;;;;;;;;6250389;28;20068;-67
2022/01/17 05:43:24;;;;;;;25.10;13.38;;;;;;;;;;6253755;28;20103;-67
2022/01/17 05:46:26;;;;;;;23.25;14.27;;;;;;;;;;6250039;28;20073;-67
2022/01/17 05:49:27;;;;;;;26.15;14.75;;;;;;;;;;6252782;28;20643;-66
2022/01/17 05:52:30;;;;;;;25.25;13.50;;;;;;;;;;6252184;28;20140;-66
2022/01/17 05:55:33;;;;;;;22.48;13.35;;;;;;;;;;6251081;28;20120;-66
2022/01/17 05:58:34;;;;;;;24.90;13.25;;;;;;;;;;6252059;28;20563;-67
2022/01/17 06:01:39;;;;;;;22.02;13.35;;;;;;;;;;6252965;28;20533;-67
2022/01/17 06:04:40;;;;;;;26.20;13.75;;;;;;;;;;6257020;28;20430;-67
2022/01/17 06:07:42;;;;;;;23.75;14.27;;;;;;;;;;6249400;28;20119;-67
2022/01/17 06:10:45;;;;;;;25.25;15.88;;;;;;;;;;6252505;28;20125;-69
2022/01/17 06:13:47;;;;;;;29.95;15.32;;;;;;;;;;6255681;28;20072;-67
2022/01/17 06:16:49;;;;;;;32.47;15.60;;;;;;;;;;6252669;28;20068;-66
2022/01/17 06:19:50;;;;;;;27.88;16.10;;;;;;;;;;6253594;28;20183;-67
2022/01/17 06:22:52;;;;;;;26.73;15.70;;;;;;;;;;6258274;28;20118;-67
2022/01/17 06:25:55;;;;;;;26.33;16.00;;;;;;;;;;6255520;28;20077;-67
2022/01/17 06:28:56;;;;;;;28.27;16.15;;;;;;;;;;6251089;28;20080;-69
2022/01/17 06:31:58;;;;;;;29.00;15.45;;;;;;;;;;6248348;28;20085;-66
2022/01/17 06:34:59;;;;;;;32.88;17.58;;;;;;;;;;6249835;28;20122;-68
2022/01/17 06:38:02;;;;;;;31.70;18.70;;;;;;;;;;6253190;28;20049;-68
2022/01/17 06:41:05;;;;;;;35.83;19.50;;;;;;;;;;6250825;28;20473;-68
2022/01/17 06:44:07;;;;;;;32.67;19.63;;;;;;;;;;6250269;28;20137;-68
2022/01/17 06:47:09;;;;;;;30.75;18.80;;;;;;;;;;6250277;28;20194;-67
2022/01/17 06:50:11;;;;;;;32.80;17.42;;;;;;;;;;6252562;28;20084;-68
2022/01/17 06:53:13;;;;;;;32.78;19.35;;;;;;;;;;6255836;28;20092;-68
2022/01/17 06:56:16;;;;;;;32.00;18.95;;;;;;;;;;6259325;28;20073;-68
2022/01/17 06:59:18;;;;;;;34.58;19.42;;;;;;;;;;6259231;28;20108;-68
2022/01/17 07:02:19;;;;;;;34.17;18.80;;;;;;;;;;6259425;28;20214;-68
2022/01/17 07:05:21;;;;;;;35.33;19.67;;;;;;;;;;6257661;28;20078;-67
2022/01/17 07:08:22;;;;;;;33.50;20.55;;;;;;;;;;6259255;28;20552;-68
2022/01/17 07:11:26;;;;;;;38.97;20.60;;;;;;;;;;6258752;28;20132;-65
2022/01/17 07:14:28;;;;;;;38.60;21.13;;;;;;;;;;6264540;28;20509;-67
2022/01/17 07:17:30;;;;;;;34.60;19.90;;;;;;;;;;6260393;28;20127;-67
2022/01/17 07:20:31;;;;;;;35.78;20.77;;;;;;;;;;6260115;28;20075;-68
2022/01/17 07:23:33;;;;;;;34.33;20.35;;;;;;;;;;6255173;28;20123;-66
2022/01/17 07:26:36;;;;;;;39.97;20.00;;;;;;;;;;6260972;28;20049;-66
2022/01/17 07:29:38;;;;;;;38.47;20.58;;;;;;;;;;6251805;28;20095;-66
2022/01/17 07:32:40;;;;;;;37.08;20.20;;;;;;;;;;6252269;28;20150;-66
2022/01/17 07:35:44;;;;;;;35.72;19.98;;;;;;;;;;6257030;28;20086;-67
2022/01/17 07:38:46;;;;;;;36.58;21.00;;;;;;;;;;6252452;28;20072;-67
2022/01/17 07:41:50;;;;;;;36.03;20.98;;;;;;;;;;6252019;28;20100;-67
2022/01/17 07:44:55;;;;;;;33.70;20.38;;;;;;;;;;6258538;28;20458;-66
2022/01/17 07:48:23;;;;;;;;;;;;;;;;;;6258350;28;20049;-66
2022/01/17 07:51:25;;;;;;;32.95;18.10;;;;;;;;;;6256863;28;19925;-66
2022/01/17 07:54:30;;;;;;;32.22;19.17;;;;;;;;;;6263189;28;20225;-66
2022/01/17 07:57:33;;;;;;;32.85;19.17;;;;;;;;;;6258784;28;20072;-67
2022/01/17 08:00:34;;;;;;;31.90;18.75;;;;;;;;;;6261331;28;20083;-62
2022/01/17 08:03:36;;;;;;;32.42;17.55;;;;;;;;;;6251461;28;20567;-61
2022/01/17 08:06:39;;;;;;;31.40;16.73;;;;;;;;;;6257443;28;20052;-64
2022/01/17 08:09:40;;;;;;;34.85;18.83;;;;;;;;;;6255046;28;20052;-64
2022/01/17 08:12:45;;;;;;;38.88;19.70;;;;;;;;;;6254803;28;20566;-62
2022/01/17 08:15:46;;;;;;;;;;;;;;;;;;6255038;28;20041;-62
2022/01/17 08:18:49;;;;;;;36.50;20.70;;;;;;;;;;6255904;28;19921;-63
2022/01/17 08:21:52;;;;;;;38.28;20.08;;;;;;;;;;6254887;28;20493;-65
2022/01/17 08:24:53;;;;;;;34.78;21.17;;;;;;;;;;6252978;28;20501;-65
2022/01/17 08:27:56;;;;;;;37.15;21.52;;;;;;;;;;6250326;28;20124;-65
2022/01/17 08:30:58;;;;;;;40.10;22.40;;;;;;;;;;6252794;28;20361;-64
2022/01/17 08:33:59;;;;;;;33.38;20.88;;;;;;;;;;6246995;28;20565;-64
2022/01/17 08:37:02;;;;;;;36.38;21.42;;;;;;;;;;6250781;28;20480;-64
2022/01/17 08:40:06;;;;;;;38.65;20.85;;;;;;;;;;6247597;28;20050;-63
2022/01/17 08:43:09;;;;;;;34.80;22.20;;;;;;;;;;6251959;28;20167;-64
2022/01/17 08:46:10;;;;;;;37.67;21.55;;;;;;;;;;6229184;28;20084;-64
2022/01/17 08:49:12;;;;;;;36.95;21.38;;;;;;;;;;6256674;28;20122;-64
2022/01/17 08:52:15;;;;;;;41.53;22.58;;;;;;;;;;6261124;28;20075;-65
2022/01/17 08:55:17;;;;;;;38.00;21.60;;;;;;;;;;6261997;28;20060;-64
2022/01/17 08:58:20;;;;;;;41.75;22.20;;;;;;;;;;6262328;28;20061;-64
2022/01/17 09:01:23;;;;;;;35.65;21.98;;;;;;;;;;6263924;28;20172;-64
2022/01/17 09:04:24;;;;;;;40.10;20.55;;;;;;;;;;6267105;28;20049;-64
2022/01/17 09:07:26;;;;;;;35.90;21.20;;;;;;;;;;6263670;28;20467;-64
2022/01/17 09:10:28;;;;;;;36.78;20.88;;;;;;;;;;6252406;28;20151;-64
2022/01/17 09:13:31;;;;;;;38.30;21.45;;;;;;;;;;6257896;28;20044;-64
2022/01/17 09:16:33;;;;;;;40.65;22.45;;;;;;;;;;6254011;28;20705;-63
2022/01/17 09:19:34;;;;;;;34.60;21.85;;;;;;;;;;6273378;28;20600;-65
2022/01/17 09:22:36;;;;;;;39.08;21.63;;;;;;;;;;6269553;28;20659;-63
2022/01/17 09:25:38;;;;;;;43.35;22.90;;;;;;;;;;6263517;28;20136;-63
2022/01/17 09:28:42;;;;;;;40.63;23.67;;;;;;;;;;6248111;28;20107;-64
2022/01/17 09:31:43;;;;;;;43.03;23.95;;;;;;;;;;6254978;28;20068;-62
2022/01/17 09:34:46;;;;;;;34.67;23.13;;;;;;;;;;6257171;28;20508;-63
2022/01/17 09:37:49;;;;;;;39.20;22.55;;;;;;;;;;6245083;28;20054;-64
2022/01/17 09:40:51;;;;;;;36.63;22.15;;;;;;;;;;6253440;28;20134;-64
2022/01/17 09:43:54;;;;;;;37.38;22.67;;;;;;;;;;6251258;28;20061;-64
2022/01/17 09:46:57;;;;;;;43.95;23.75;;;;;;;;;;6251201;28;20045;-60
2022/01/17 09:49:58;;;;;;;35.22;23.30;;;;;;;;;;6251800;28;20449;-63
2022/01/17 09:53:01;;;;;;;34.70;21.65;;;;;;;;;;6249886;28;20088;-63
2022/01/17 09:56:04;;;;;;;36.20;22.88;;;;;;;;;;6257224;28;20105;-63
2022/01/17 09:59:07;;;;;;;42.60;23.45;;;;;;;;;;6257357;28;20045;-63
2022/01/17 10:02:09;;;;;;;36.67;22.65;;;;;;;;;;6249877;28;20125;-63
2022/01/17 10:05:11;;;;;;;39.70;23.23;;;;;;;;;;6259017;28;20069;-64
2022/01/17 10:08:16;;;;;;;39.72;23.98;;;;;;;;;;6257073;28;20132;-63
2022/01/17 10:11:18;;;;;;;35.10;22.30;;;;;;;;;;6248893;28;20077;-63
2022/01/17 10:14:28;;;;;;;45.28;23.85;;;;;;;;;;6256206;28;20081;-63
2022/01/17 10:17:43;;;;;;;30.70;19.65;;;;;;;;;;6255951;28;20056;-63
2022/01/17 10:20:51;;;;;;;35.58;21.35;;;;;;;;;;6250979;28;20038;-63
2022/01/17 10:24:16;;;;;;;37.10;22.33;;;;;;;;;;6261704;28;20056;-63
2022/01/17 10:30:50;;;;;;;35.85;21.52;;;;;;;;;;6251735;28;20101;-63
2022/01/17 10:37:15;;;;;;;32.65;19.85;;;;;;;;;;6258972;28;20124;-66
2022/01/17 10:40:20;;;;;;;32.13;20.58;;;;;;;;;;6258560;28;20422;-63
2022/01/17 10:43:25;;;;;;;31.95;19.33;;;;;;;;;;6262504;28;20144;-63
2022/01/17 10:46:28;;;;;;;32.13;20.55;;;;;;;;;;6261822;28;20405;-63
2022/01/17 10:49:48;;;;;;;31.77;18.83;;;;;;;;;;6263804;28;20045;-65
2022/01/17 10:52:51;;;;;;;33.10;18.65;;;;;;;;;;6263160;28;20522;-63
2022/01/17 10:55:54;;;;;;;30.83;17.92;;;;;;;;;;6262815;28;20367;-63
2022/01/17 10:59:02;;;;;;;32.35;18.85;;;;;;;;;;6262367;28;20154;-64
2022/01/17 11:02:05;;;;;;;29.10;18.45;;;;;;;;;;6261107;28;20061;-63
2022/01/17 11:05:09;;;;;;;31.00;17.40;;;;;;;;;;6257697;28;20503;-63
2022/01/17 11:08:12;;;;;;;31.55;19.15;;;;;;;;;;6258662;28;20537;-63
2022/01/17 11:11:14;;;;;;;31.48;17.83;;;;;;;;;;6260143;28;20551;-63
2022/01/17 11:14:16;;;;;;;28.67;17.95;;;;;;;;;;6260047;28;20145;-63
2022/01/17 11:17:26;;;;;;;27.38;18.15;;;;;;;;;;6259940;28;20092;-63
2022/01/17 11:20:29;;;;;;;26.70;17.35;;;;;;;;;;6264742;28;20057;-63
2022/01/17 11:23:30;;;;;;;28.48;18.05;;;;;;;;;;6256285;28;20126;-63
2022/01/17 11:26:32;;;;;;;35.38;19.60;;;;;;;;;;6262479;28;20166;-63
2022/01/17 11:29:33;;;;;;;31.77;20.55;;;;;;;;;;6251178;28;20092;-63
2022/01/17 11:32:36;;;;;;;38.05;20.25;;;;;;;;;;6254548;28;20191;-63
2022/01/17 11:35:42;;;;;;;28.80;19.25;;;;;;;;;;6259169;28;20187;-63
2022/01/17 11:38:46;;;;;;;28.27;18.58;;;;;;;;;;6255426;28;20046;-63
2022/01/17 11:41:50;;;;;;;31.73;19.20;;;;;;;;;;6256169;28;20088;-63
2022/01/17 11:44:51;;;;;;;26.92;19.35;;;;;;;;;;6256060;28;20584;-63
2022/01/17 11:47:55;;;;;;;30.98;18.40;;;;;;;;;;6257528;28;20048;-63
2022/01/17 11:50:57;;;;;;;;;;;;;;;;;;6259824;28;20161;-63
2022/01/17 11:54:09;;;;;;;25.17;17.25;;;;;;;;;;6263352;28;19928;-64
2022/01/17 11:57:20;;;;;;;24.98;17.38;;;;;;;;;;6256583;28;20520;-62
2022/01/17 12:00:29;;;;;;;29.20;17.83;;;;;;;;;;6258143;28;20185;-62
2022/01/17 12:03:38;;;;;;;30.77;17.73;;;;;;;;;;6262258;28;20586;-62
2022/01/17 12:06:40;;;;;;;22.45;15.68;;;;;;;;;;6254031;28;20044;-64
2022/01/17 12:09:44;;;;;;;25.02;15.90;;;;;;;;;;6260561;28;20157;-65
2022/01/17 12:13:33;;;;;;;28.40;15.82;;;;;;;;;;6255995;28;20098;-62
2022/01/17 12:16:37;;;;;;;24.10;14.25;;;;;;;;;;6256511;28;20045;-63
2022/01/17 12:20:17;;;;;;;18.35;13.07;;;;;;;;;;6263709;28;20118;-63
2022/01/17 12:23:25;;;;;;;21.73;13.80;;;;;;;;;;6256826;28;20481;-64
2022/01/17 12:26:28;;;;;;;23.70;14.50;;;;;;;;;;6255971;28;20046;-62
2022/01/17 12:29:42;;;;;;;20.80;13.55;;;;;;;;;;6247749;28;20104;-65
2022/01/17 12:32:48;;;;;;;20.20;12.48;;;;;;;;;;6253917;28;20077;-65
2022/01/17 12:35:51;;;;;;;23.10;13.77;;;;;;;;;;6255755;28;20390;-65
2022/01/17 12:39:09;;;;;;;18.45;12.55;;;;;;;;;;6260989;28;20120;-63
2022/01/17 12:42:11;;;;;;;20.92;12.93;;;;;;;;;;6253845;28;20390;-64
2022/01/17 12:45:13;;;;;;;20.27;12.75;;;;;;;;;;6252001;28;20525;-64
2022/01/17 12:48:17;;;;;;;18.67;12.05;;;;;;;;;;6256569;28;20123;-64
2022/01/17 12:51:20;;;;;;;;;;;;;;;;;;6260686;28;20056;-64
2022/01/17 12:54:24;;;;;;;20.63;12.95;;;;;;;;;;6254257;28;19955;-64
2022/01/17 12:57:25;;;;;;;17.08;10.63;;;;;;;;;;6254856;28;20111;-63
2022/01/17 13:00:27;;;;;;;17.92;11.10;;;;;;;;;;6256971;28;20098;-64
2022/01/17 13:03:33;;;;;;;21.52;11.90;;;;;;;;;;6248848;28;20278;-64
2022/01/17 13:06:36;;;;;;;20.48;12.55;;;;;;;;;;6256666;28;20045;-65
2022/01/17 13:09:40;;;;;;;20.27;12.00;;;;;;;;;;6253383;28;20474;-64
2022/01/17 13:12:42;;;;;;;18.33;12.80;;;;;;;;;;6253564;28;20485;-65
2022/01/17 13:15:58;;;;;;;17.90;12.68;;;;;;;;;;6255431;28;20313;-63
2022/01/17 13:18:59;;;;;;;19.02;11.98;;;;;;;;;;6256011;28;20553;-63
2022/01/17 13:22:04;;;;;;;16.27;11.52;;;;;;;;;;6252072;28;20187;-63
2022/01/17 13:25:07;;;;;;;19.45;11.75;;;;;;;;;;6249878;28;20052;-64
2022/01/17 13:28:08;;;;;;;18.03;11.57;;;;;;;;;;6245940;28;20465;-63
2022/01/17 13:31:20;;;;;;;17.73;12.15;;;;;;;;;;6249536;28;20073;-63
2022/01/17 13:34:24;;;;;;;18.52;12.73;;;;;;;;;;6251373;28;20486;-62
2022/01/17 13:37:27;;;;;;;19.90;12.85;;;;;;;;;;6255853;28;20052;-63
2022/01/17 13:40:29;;;;;;;20.23;13.10;;;;;;;;;;6249520;28;20049;-63
2022/01/17 13:43:31;;;;;;;18.70;12.75;;;;;;;;;;6252607;28;20130;-64
2022/01/17 13:46:32;;;;;;;19.25;13.40;;;;;;;;;;6258350;28;20132;-64
2022/01/17 13:49:37;;;;;;;19.65;12.75;;;;;;;;;;6256189;28;20104;-64
2022/01/17 13:52:40;;;;;;;20.35;13.02;;;;;;;;;;6255610;28;20057;-64
2022/01/17 13:55:43;;;;;;;18.87;12.87;;;;;;;;;;6255998;28;20563;-64
2022/01/17 13:58:46;;;;;;;21.40;13.38;;;;;;;;;;6254808;28;20045;-64
2022/01/17 14:01:47;;;;;;;21.65;13.23;;;;;;;;;;6256038;28;20049;-64
2022/01/17 14:04:49;;;;;;;21.63;12.77;;;;;;;;;;6258320;28;20120;-64
2022/01/17 14:07:52;;;;;;;20.02;12.57;;;;;;;;;;6260549;28;20106;-64
2022/01/17 14:11:02;;;;;;;20.43;13.03;;;;;;;;;;6260091;28;20066;-64
2022/01/17 14:14:03;;;;;;;17.95;12.35;;;;;;;;;;6255617;28;20053;-64
2022/01/17 14:17:05;;;;;;;19.40;13.13;;;;;;;;;;6262596;28;20099;-63
2022/01/17 14:20:10;;;;;;;24.70;12.82;;;;;;;;;;6255688;28;20057;-63
2022/01/17 14:23:29;;;;;;;22.65;12.52;;;;;;;;;;6262764;28;20494;-66
2022/01/17 14:26:30;;;;;;;18.50;12.63;;;;;;;;;;6257172;28;20172;-63
2022/01/17 14:29:37;;;;;;;20.83;12.93;;;;;;;;;;6254391;28;20170;-62
2022/01/17 14:32:39;;;;;;;21.83;12.05;;;;;;;;;;6261427;28;20143;-66
2022/01/17 14:35:41;;;;;;;22.52;13.30;;;;;;;;;;6263236;28;20168;-65
2022/01/17 14:38:46;;;;;;;18.52;12.40;;;;;;;;;;6259291;28;20041;-65
2022/01/17 14:41:48;;;;;;;19.17;12.50;;;;;;;;;;6257782;28;20631;-65
2022/01/17 14:44:52;;;;;;;20.05;11.88;;;;;;;;;;6257479;28;20045;-66
2022/01/17 14:47:54;;;;;;;16.50;11.55;;;;;;;;;;6258204;28;20045;-65
2022/01/17 14:51:14;;;;;;;22.67;11.55;;;;;;;;;;6257446;28;20387;-63
2022/01/17 14:54:25;;;;;;;16.90;10.20;;;;;;;;;;6258126;28;20716;-65
2022/01/17 15:00:50;;;;;;;12.80;8.60;;;;;;;;;;6260776;28;20072;-65
2022/01/17 15:03:54;;;;;;;12.25;8.13;;;;;;;;;;6261819;28;20049;-65
2022/01/17 15:06:56;;;;;;;;;;;;;;;;;;6260332;28;20483;-65
2022/01/17 15:09:59;;;;;;;9.18;5.55;;;;;;;;;;6262294;28;19994;-64
2022/01/17 15:13:02;;;;;;;11.70;5.83;;;;;;;;;;6263723;28;20052;-64
2022/01/17 15:16:04;;;;;;;9.55;5.75;;;;;;;;;;6263639;28;20049;-64
2022/01/17 15:19:06;;;;;;;9.77;5.28;;;;;;;;;;6261554;28;20418;-64
2022/01/17 15:22:07;;;;;;;10.18;4.78;;;;;;;;;;6257057;28;20134;-64
2022/01/17 15:25:12;;;;;;;8.50;4.50;;;;;;;;;;6259023;28;20124;-65
2022/01/17 15:28:14;;;;;;;5.70;3.95;;;;;;;;;;6257823;28;20114;-64
2022/01/17 15:31:16;;;;;;;7.97;4.30;;;;;;;;;;6254402;28;20058;-64
2022/01/17 15:34:17;;;;;;;7.20;3.90;;;;;;;;;;6257435;28;20072;-65
2022/01/17 15:37:19;;;;;;;7.57;4.00;;;;;;;;;;6259144;28;20065;-64
2022/01/17 15:40:22;;;;;;;7.07;4.07;;;;;;;;;;6256188;28;20099;-65
2022/01/17 15:43:25;;;;;;;9.32;4.35;;;;;;;;;;6260010;28;20143;-64
2022/01/17 15:46:29;;;;;;;7.22;3.78;;;;;;;;;;6261799;28;20103;-66
2022/01/17 15:49:30;;;;;;;;;;;;;;;;;;6260780;28;20497;-64
2022/01/17 15:52:32;;;;;;;11.13;4.03;;;;;;;;;;6258476;28;20361;-64
2022/01/17 15:55:35;;;;;;;7.60;4.35;;;;;;;;;;6259157;28;20053;-64
2022/01/17 15:58:36;;;;;;;8.35;3.60;;;;;;;;;;6261355;28;22314;-64
2022/01/17 16:01:38;;;;;;;8.98;4.30;;;;;;;;;;6260200;28;20571;-64
2022/01/17 16:04:41;;;;;;;10.95;4.32;;;;;;;;;;6255033;28;20149;-64
2022/01/17 16:07:43;;;;;;;5.95;3.60;;;;;;;;;;6254883;28;20046;-64
2022/01/17 16:10:48;;;;;;;7.50;4.22;;;;;;;;;;6257559;28;20046;-65
2022/01/17 16:13:51;;;;;;;10.65;4.15;;;;;;;;;;6261262;28;20092;-63
2022/01/17 16:16:52;;;;;;;7.43;4.07;;;;;;;;;;6260452;28;20045;-64
2022/01/17 16:19:54;;;;;;;7.35;4.55;;;;;;;;;;6264370;28;20124;-64
2022/01/17 16:22:55;;;;;;;10.30;5.10;;;;;;;;;;6252466;28;20143;-63
2022/01/17 16:25:58;;;;;;;10.45;4.80;;;;;;;;;;6257979;28;20061;-66
2022/01/17 16:29:00;;;;;;;7.93;4.50;;;;;;;;;;6257601;28;20463;-63
2022/01/17 16:32:01;;;;;;;8.82;4.10;;;;;;;;;;6258382;28;20183;-64
2022/01/17 16:35:04;;;;;;;6.75;4.25;;;;;;;;;;6261342;28;20110;-63
2022/01/17 16:38:06;;;;;;;6.82;3.95;;;;;;;;;;6258178;28;20088;-65
2022/01/17 16:41:09;;;;;;;7.18;4.03;;;;;;;;;;6254356;28;20504;-63
2022/01/17 16:44:13;;;;;;;7.67;4.03;;;;;;;;;;6257763;28;20512;-64
2022/01/17 16:47:15;;;;;;;7.18;4.22;;;;;;;;;;6259961;28;20474;-64
2022/01/17 16:50:21;;;;;;;7.18;4.13;;;;;;;;;;6258332;28;20141;-65
2022/01/17 16:53:23;;;;;;;8.02;3.90;;;;;;;;;;6256812;28;20063;-64
2022/01/17 16:56:26;;;;;;;7.32;4.25;;;;;;;;;;6258259;28;20507;-65
2022/01/17 16:59:28;;;;;;;7.93;4.32;;;;;;;;;;6249604;28;20041;-65
2022/01/17 17:02:29;;;;;;;6.20;3.83;;;;;;;;;;6258327;28;20138;-63
2022/01/17 17:05:31;;;;;;;9.20;4.45;;;;;;;;;;6256718;28;20219;-63
2022/01/17 17:08:33;;;;;;;7.93;3.95;;;;;;;;;;6254677;28;20053;-65
2022/01/17 17:11:38;;;;;;;6.90;3.80;;;;;;;;;;6257846;28;20049;-63
2022/01/17 17:14:40;;;;;;;7.00;4.00;;;;;;;;;;6249650;28;20267;-63
2022/01/17 17:17:41;;;;;;;6.68;3.60;;;;;;;;;;6263407;28;20120;-65
2022/01/17 17:20:45;;;;;;;11.10;4.10;;;;;;;;;;6258067;28;20297;-63
2022/01/17 17:23:47;;;;;;;;;;;;;;;;;;6251492;28;20057;-62
2022/01/17 17:26:50;;;;;;;6.80;4.32;;;;;;;;;;6253433;28;20572;-63
2022/01/17 17:29:52;;;;;;;9.18;4.40;;;;;;;;;;6257169;28;20093;-65
2022/01/17 17:32:54;;;;;;;7.28;3.92;;;;;;;;;;6253383;28;20108;-64
2022/01/17 17:35:55;;;;;;;9.50;4.43;;;;;;;;;;6255966;28;20044;-64
2022/01/17 17:38:59;;;;;;;9.40;4.50;;;;;;;;;;6250364;28;20227;-65
2022/01/17 17:42:02;;;;;;;;;;;;;;;;;;6253810;28;20044;-65
2022/01/17 17:45:05;;;;;;;9.43;5.32;;;;;;;;;;6252233;28;19955;-65
2022/01/17 17:48:06;;;;;;;11.23;6.15;;;;;;;;;;6255767;28;20124;-64
2022/01/17 17:51:08;;;;;;;12.45;6.95;;;;;;;;;;6256662;28;20462;-64
2022/01/17 17:54:10;;;;;;;11.82;7.03;;;;;;;;;;6251561;28;20433;-64
2022/01/17 17:57:13;;;;;;;12.98;7.47;;;;;;;;;;6259733;28;20134;-64
2022/01/17 18:00:17;;;;;;;13.20;6.95;;;;;;;;;;6257580;28;20489;-64
2022/01/17 18:03:19;;;;;;;13.75;7.45;;;;;;;;;;6254039;28;20049;-64
2022/01/17 18:06:20;;;;;;;12.30;7.00;;;;;;;;;;6250474;28;20061;-64
2022/01/17 18:09:22;;;;;;;11.75;6.55;;;;;;;;;;6251799;28;20132;-63
2022/01/17 18:12:25;;;;;;;11.40;6.80;;;;;;;;;;6257470;28;20130;-64
2022/01/17 18:15:26;;;;;;;11.82;6.47;;;;;;;;;;6256742;28;20130;-64
2022/01/17 18:18:28;;;;;;;10.00;5.93;;;;;;;;;;6257108;28;20060;-64
2022/01/17 18:21:30;;;;;;;41.97;20.98;;;;;;;;;;6261767;28;20049;-61